Página principal
METAR-TAF:

METAR-TAF

Aeroportos :

Nouméa, Nova Caledónia

latitude: 22-15-30S, longitude: 166-28-22E, altura: 3 m

METAR: em falta

Hora: 16:57 (05:57 UTC)

Previsão

O boletim foi feito há 12 horas e 57 minutos, às 17:00 UTC
Previsão válida de 11 às 18 UTC a 12 às 18 UTC
Vento 10 kt de oes-noroeste
Visibilidade 10 km ou mais
Poucas nuvensa uma altura de 3500 ft
Probabilidade 30% :
Temporariamente
de 11 às 22 UTC a 12 às 01 UTC
aguaceiros de chuva
Tornando-se
de 12 às 08 UTC a 12 às 10 UTC
Vento 2 kt com direcção variável

TAF: NWWM 111700Z 1118/1218 29010KT 9999 FEW035 PROB30 TEMPO 1122/1201 SHRA BECMG 1208/1210 VRB02KT

Observações e previsões do tempo de mais de 4000 aeroportos (mensagens METAR e TAF).

As estações disponíveis são os pontos amarelos e vermelhos sobre o mapa.

Mova o rato sobre o mapa para ver o nome da estação.

Depois clique no ponto para visualizar as observações e previsões meteorológicas.

Para alterar o mapa : clique nos botões verdes com uma cruz preta para aumentar o zoom; no botão verde com uma pitada de zoom; ou nas setas verdes para mapas adjacentes.


METAR-TAF: